sensor_id;sensor_type;location;lat;lon;timestamp;temperature;humidity
22923;DHT22;11627;51.322;22.816;2024-03-02T00:00:27;6.20;99.90
22923;DHT22;11627;51.322;22.816;2024-03-02T00:02:54;6.10;99.90
22923;DHT22;11627;51.322;22.816;2024-03-02T00:05:21;6.30;99.90
22923;DHT22;11627;51.322;22.816;2024-03-02T00:07:55;6.10;99.90
22923;DHT22;11627;51.322;22.816;2024-03-02T00:13:08;6.10;99.90
22923;DHT22;11627;51.322;22.816;2024-03-02T00:18:21;6.10;99.90
22923;DHT22;11627;51.322;22.816;2024-03-02T00:20:53;6.10;99.90
22923;DHT22;11627;51.322;22.816;2024-03-02T00:23:20;6.10;99.90
22923;DHT22;11627;51.322;22.816;2024-03-02T00:25:51;6.10;99.90
22923;DHT22;11627;51.322;22.816;2024-03-02T00:28:27;6.20;99.90
22923;DHT22;11627;51.322;22.816;2024-03-02T00:31:08;6.20;99.90
22923;DHT22;11627;51.322;22.816;2024-03-02T00:33:48;6.20;99.90
22923;DHT22;11627;51.322;22.816;2024-03-02T00:36:20;6.10;99.90
22923;DHT22;11627;51.322;22.816;2024-03-02T00:38:49;6.10;99.90
22923;DHT22;11627;51.322;22.816;2024-03-02T00:41:30;6.10;99.90
22923;DHT22;11627;51.322;22.816;2024-03-02T00:44:07;6.10;99.90
22923;DHT22;11627;51.322;22.816;2024-03-02T00:46:38;6.10;99.90
22923;DHT22;11627;51.322;22.816;2024-03-02T00:49:10;6.20;99.90
22923;DHT22;11627;51.322;22.816;2024-03-02T00:51:46;6.10;99.90
22923;DHT22;11627;51.322;22.816;2024-03-02T00:54:28;6.20;99.90
22923;DHT22;11627;51.322;22.816;2024-03-02T00:56:55;6.10;99.90
22923;DHT22;11627;51.322;22.816;2024-03-02T00:59:22;6.10;99.90
22923;DHT22;11627;51.322;22.816;2024-03-02T01:01:49;6.10;99.90
22923;DHT22;11627;51.322;22.816;2024-03-02T01:04:15;6.10;99.90
22923;DHT22;11627;51.322;22.816;2024-03-02T01:06:43;6.10;99.90
22923;DHT22;11627;51.322;22.816;2024-03-02T01:09:09;6.10;99.90
22923;DHT22;11627;51.322;22.816;2024-03-02T01:11:35;6.10;99.90
22923;DHT22;11627;51.322;22.816;2024-03-02T01:14:01;6.20;99.90
22923;DHT22;11627;51.322;22.816;2024-03-02T01:16:28;6.10;99.90
22923;DHT22;11627;51.322;22.816;2024-03-02T01:18:53;6.10;99.90
22923;DHT22;11627;51.322;22.816;2024-03-02T01:21:22;6.10;99.90
22923;DHT22;11627;51.322;22.816;2024-03-02T01:23:47;6.10;99.90
22923;DHT22;11627;51.322;22.816;2024-03-02T01:26:14;6.10;99.90
22923;DHT22;11627;51.322;22.816;2024-03-02T01:28:40;6.10;99.90
22923;DHT22;11627;51.322;22.816;2024-03-02T01:31:06;6.20;99.90
22923;DHT22;11627;51.322;22.816;2024-03-02T01:35:58;6.10;99.90
22923;DHT22;11627;51.322;22.816;2024-03-02T01:38:25;6.10;99.90
22923;DHT22;11627;51.322;22.816;2024-03-02T01:40:51;6.10;99.90
22923;DHT22;11627;51.322;22.816;2024-03-02T01:43:18;6.10;99.90
22923;DHT22;11627;51.322;22.816;2024-03-02T01:45:44;6.00;99.90
22923;DHT22;11627;51.322;22.816;2024-03-02T01:48:10;5.90;99.90
22923;DHT22;11627;51.322;22.816;2024-03-02T01:50:36;6.00;99.90
22923;DHT22;11627;51.322;22.816;2024-03-02T01:53:03;6.00;99.90
22923;DHT22;11627;51.322;22.816;2024-03-02T01:55:32;6.00;99.90
22923;DHT22;11627;51.322;22.816;2024-03-02T01:58:00;6.00;99.90
22923;DHT22;11627;51.322;22.816;2024-03-02T02:00:26;6.10;99.90
22923;DHT22;11627;51.322;22.816;2024-03-02T02:02:53;6.10;99.90
22923;DHT22;11627;51.322;22.816;2024-03-02T02:05:19;6.00;99.90
22923;DHT22;11627;51.322;22.816;2024-03-02T02:07:48;6.00;99.90
22923;DHT22;11627;51.322;22.816;2024-03-02T02:10:14;6.00;99.90
22923;DHT22;11627;51.322;22.816;2024-03-02T02:12:42;6.00;99.90
22923;DHT22;11627;51.322;22.816;2024-03-02T02:17:52;6.00;99.90
22923;DHT22;11627;51.322;22.816;2024-03-02T02:20:20;6.20;99.90
22923;DHT22;11627;51.322;22.816;2024-03-02T02:23:03;6.00;99.90
22923;DHT22;11627;51.322;22.816;2024-03-02T02:25:31;5.90;99.90
22923;DHT22;11627;51.322;22.816;2024-03-02T02:27:58;6.00;99.90
22923;DHT22;11627;51.322;22.816;2024-03-02T02:30:27;6.00;99.90
22923;DHT22;11627;51.322;22.816;2024-03-02T02:32:54;6.00;99.90
22923;DHT22;11627;51.322;22.816;2024-03-02T02:35:21;5.90;99.90
22923;DHT22;11627;51.322;22.816;2024-03-02T02:37:48;5.90;99.90
22923;DHT22;11627;51.322;22.816;2024-03-02T02:40:15;5.90;99.90
22923;DHT22;11627;51.322;22.816;2024-03-02T02:42:43;6.00;99.90
22923;DHT22;11627;51.322;22.816;2024-03-02T02:45:10;6.20;99.90
22923;DHT22;11627;51.322;22.816;2024-03-02T02:47:41;5.90;99.90
22923;DHT22;11627;51.322;22.816;2024-03-02T02:50:08;6.00;99.90
22923;DHT22;11627;51.322;22.816;2024-03-02T02:52:34;6.00;99.90
22923;DHT22;11627;51.322;22.816;2024-03-02T02:55:03;6.00;99.90
22923;DHT22;11627;51.322;22.816;2024-03-02T02:57:33;5.90;99.90
22923;DHT22;11627;51.322;22.816;2024-03-02T03:00:08;6.00;99.90
22923;DHT22;11627;51.322;22.816;2024-03-02T03:02:42;6.00;99.90
22923;DHT22;11627;51.322;22.816;2024-03-02T03:05:12;5.90;99.90
22923;DHT22;11627;51.322;22.816;2024-03-02T03:07:40;5.90;99.90
22923;DHT22;11627;51.322;22.816;2024-03-02T03:10:09;5.90;99.90
22923;DHT22;11627;51.322;22.816;2024-03-02T03:12:35;5.90;99.90
22923;DHT22;11627;51.322;22.816;2024-03-02T03:15:02;5.90;99.90
22923;DHT22;11627;51.322;22.816;2024-03-02T03:17:30;6.00;99.90
22923;DHT22;11627;51.322;22.816;2024-03-02T03:19:56;6.00;99.90
22923;DHT22;11627;51.322;22.816;2024-03-02T03:22:21;6.00;99.90
22923;DHT22;11627;51.322;22.816;2024-03-02T03:24:47;6.00;99.90
22923;DHT22;11627;51.322;22.816;2024-03-02T03:27:13;6.00;99.90
22923;DHT22;11627;51.322;22.816;2024-03-02T03:29:39;5.90;99.90
22923;DHT22;11627;51.322;22.816;2024-03-02T03:32:05;5.90;99.90
22923;DHT22;11627;51.322;22.816;2024-03-02T03:34:35;6.00;99.90
22923;DHT22;11627;51.322;22.816;2024-03-02T03:37:02;6.00;99.90
22923;DHT22;11627;51.322;22.816;2024-03-02T03:39:29;5.90;99.90
22923;DHT22;11627;51.322;22.816;2024-03-02T03:41:55;6.00;99.90
22923;DHT22;11627;51.322;22.816;2024-03-02T03:44:21;6.00;99.90
22923;DHT22;11627;51.322;22.816;2024-03-02T03:46:48;6.00;99.90
22923;DHT22;11627;51.322;22.816;2024-03-02T03:49:15;6.00;99.90
22923;DHT22;11627;51.322;22.816;2024-03-02T03:51:40;6.00;99.90
22923;DHT22;11627;51.322;22.816;2024-03-02T03:54:07;6.10;99.90
22923;DHT22;11627;51.322;22.816;2024-03-02T03:56:32;6.00;99.90
22923;DHT22;11627;51.322;22.816;2024-03-02T03:58:58;5.90;99.90
22923;DHT22;11627;51.322;22.816;2024-03-02T04:01:26;5.90;99.90
22923;DHT22;11627;51.322;22.816;2024-03-02T04:03:52;6.00;99.90
22923;DHT22;11627;51.322;22.816;2024-03-02T04:06:19;6.00;99.90
22923;DHT22;11627;51.322;22.816;2024-03-02T04:08:45;6.00;99.90
22923;DHT22;11627;51.322;22.816;2024-03-02T04:13:37;6.10;99.90
22923;DHT22;11627;51.322;22.816;2024-03-02T04:16:04;6.00;99.90
22923;DHT22;11627;51.322;22.816;2024-03-02T04:18:31;6.10;99.90
22923;DHT22;11627;51.322;22.816;2024-03-02T04:20:59;6.00;99.90
22923;DHT22;11627;51.322;22.816;2024-03-02T04:23:27;6.10;99.90
22923;DHT22;11627;51.322;22.816;2024-03-02T04:25:53;6.10;99.90
22923;DHT22;11627;51.322;22.816;2024-03-02T04:28:19;6.00;99.90
22923;DHT22;11627;51.322;22.816;2024-03-02T04:30:47;6.10;99.90
22923;DHT22;11627;51.322;22.816;2024-03-02T04:33:13;6.00;99.90
22923;DHT22;11627;51.322;22.816;2024-03-02T04:35:39;6.00;99.90
22923;DHT22;11627;51.322;22.816;2024-03-02T04:38:05;6.10;99.90
22923;DHT22;11627;51.322;22.816;2024-03-02T04:40:31;6.10;99.90
22923;DHT22;11627;51.322;22.816;2024-03-02T04:42:59;6.10;99.90
22923;DHT22;11627;51.322;22.816;2024-03-02T04:45:25;6.00;99.90
22923;DHT22;11627;51.322;22.816;2024-03-02T04:47:51;6.00;99.90
22923;DHT22;11627;51.322;22.816;2024-03-02T04:50:17;6.00;99.90
22923;DHT22;11627;51.322;22.816;2024-03-02T04:52:44;6.00;99.90
22923;DHT22;11627;51.322;22.816;2024-03-02T04:55:11;5.80;99.90
22923;DHT22;11627;51.322;22.816;2024-03-02T04:57:56;6.00;99.90
22923;DHT22;11627;51.322;22.816;2024-03-02T05:00:22;6.00;99.90
22923;DHT22;11627;51.322;22.816;2024-03-02T05:05:14;5.90;99.90
22923;DHT22;11627;51.322;22.816;2024-03-02T05:07:43;5.90;99.90
22923;DHT22;11627;51.322;22.816;2024-03-02T05:10:10;6.00;99.90
22923;DHT22;11627;51.322;22.816;2024-03-02T05:12:38;6.00;99.90
22923;DHT22;11627;51.322;22.816;2024-03-02T05:15:11;6.00;99.90
22923;DHT22;11627;51.322;22.816;2024-03-02T05:17:41;6.10;99.90
22923;DHT22;11627;51.322;22.816;2024-03-02T05:20:10;6.00;99.90
22923;DHT22;11627;51.322;22.816;2024-03-02T05:22:37;6.10;99.90
22923;DHT22;11627;51.322;22.816;2024-03-02T05:25:05;6.00;99.90
22923;DHT22;11627;51.322;22.816;2024-03-02T05:27:32;5.80;99.90
22923;DHT22;11627;51.322;22.816;2024-03-02T05:29:59;6.00;99.90
22923;DHT22;11627;51.322;22.816;2024-03-02T05:32:26;6.20;99.90
22923;DHT22;11627;51.322;22.816;2024-03-02T05:34:52;6.00;99.90
22923;DHT22;11627;51.322;22.816;2024-03-02T05:37:18;6.00;99.90
22923;DHT22;11627;51.322;22.816;2024-03-02T05:39:44;5.90;99.90
22923;DHT22;11627;51.322;22.816;2024-03-02T05:42:11;6.00;99.90
22923;DHT22;11627;51.322;22.816;2024-03-02T05:44:37;6.10;99.90
22923;DHT22;11627;51.322;22.816;2024-03-02T05:47:05;6.20;99.90
22923;DHT22;11627;51.322;22.816;2024-03-02T05:49:35;6.10;99.90
22923;DHT22;11627;51.322;22.816;2024-03-02T05:52:04;6.10;99.90
22923;DHT22;11627;51.322;22.816;2024-03-02T05:54:30;5.90;99.90
22923;DHT22;11627;51.322;22.816;2024-03-02T05:56:56;5.80;99.90
22923;DHT22;11627;51.322;22.816;2024-03-02T05:59:42;5.80;99.90
22923;DHT22;11627;51.322;22.816;2024-03-02T06:02:10;6.00;99.90
22923;DHT22;11627;51.322;22.816;2024-03-02T06:07:02;5.90;99.90
22923;DHT22;11627;51.322;22.816;2024-03-02T06:09:28;5.90;99.90
22923;DHT22;11627;51.322;22.816;2024-03-02T06:14:22;5.90;99.90
22923;DHT22;11627;51.322;22.816;2024-03-02T06:16:49;6.20;99.90
22923;DHT22;11627;51.322;22.816;2024-03-02T06:19:14;5.90;99.90
22923;DHT22;11627;51.322;22.816;2024-03-02T06:21:40;5.90;99.90
22923;DHT22;11627;51.322;22.816;2024-03-02T06:24:08;5.90;99.90
22923;DHT22;11627;51.322;22.816;2024-03-02T06:26:35;5.70;99.90
22923;DHT22;11627;51.322;22.816;2024-03-02T06:29:01;5.80;99.90
22923;DHT22;11627;51.322;22.816;2024-03-02T06:31:28;5.60;99.90
22923;DHT22;11627;51.322;22.816;2024-03-02T06:33:53;5.80;99.90
22923;DHT22;11627;51.322;22.816;2024-03-02T06:36:19;5.90;99.90
22923;DHT22;11627;51.322;22.816;2024-03-02T06:38:45;6.20;99.90
22923;DHT22;11627;51.322;22.816;2024-03-02T06:41:11;5.80;99.90
22923;DHT22;11627;51.322;22.816;2024-03-02T06:43:37;6.30;99.90
22923;DHT22;11627;51.322;22.816;2024-03-02T06:46:05;6.50;99.90
22923;DHT22;11627;51.322;22.816;2024-03-02T06:51:02;6.00;99.90
22923;DHT22;11627;51.322;22.816;2024-03-02T06:53:28;5.80;99.90
22923;DHT22;11627;51.322;22.816;2024-03-02T06:55:55;6.10;99.90
22923;DHT22;11627;51.322;22.816;2024-03-02T06:58:22;6.00;99.90
22923;DHT22;11627;51.322;22.816;2024-03-02T07:00:49;6.00;99.90
22923;DHT22;11627;51.322;22.816;2024-03-02T07:03:16;6.00;99.90
22923;DHT22;11627;51.322;22.816;2024-03-02T07:08:09;6.10;99.90
22923;DHT22;11627;51.322;22.816;2024-03-02T07:10:35;6.10;99.90
22923;DHT22;11627;51.322;22.816;2024-03-02T07:13:02;6.10;99.90
22923;DHT22;11627;51.322;22.816;2024-03-02T07:15:28;6.40;99.90
22923;DHT22;11627;51.322;22.816;2024-03-02T07:18:13;6.10;99.90
22923;DHT22;11627;51.322;22.816;2024-03-02T07:20:40;6.40;99.90
22923;DHT22;11627;51.322;22.816;2024-03-02T07:23:07;6.40;99.90
22923;DHT22;11627;51.322;22.816;2024-03-02T07:25:34;6.20;99.90
22923;DHT22;11627;51.322;22.816;2024-03-02T07:28:00;6.50;99.90
22923;DHT22;11627;51.322;22.816;2024-03-02T07:30:27;6.40;99.90
22923;DHT22;11627;51.322;22.816;2024-03-02T07:32:55;6.50;99.90
22923;DHT22;11627;51.322;22.816;2024-03-02T07:37:52;6.00;99.90
22923;DHT22;11627;51.322;22.816;2024-03-02T07:40:19;6.30;99.90
22923;DHT22;11627;51.322;22.816;2024-03-02T07:42:45;6.50;99.90
22923;DHT22;11627;51.322;22.816;2024-03-02T07:45:12;6.40;99.90
22923;DHT22;11627;51.322;22.816;2024-03-02T07:47:38;6.50;99.90
22923;DHT22;11627;51.322;22.816;2024-03-02T07:50:06;6.30;99.90
22923;DHT22;11627;51.322;22.816;2024-03-02T07:52:36;6.50;99.90
22923;DHT22;11627;51.322;22.816;2024-03-02T07:55:02;6.50;99.90
22923;DHT22;11627;51.322;22.816;2024-03-02T07:57:28;6.70;99.90
22923;DHT22;11627;51.322;22.816;2024-03-02T07:59:54;6.80;99.90
22923;DHT22;11627;51.322;22.816;2024-03-02T08:02:20;6.60;99.90
22923;DHT22;11627;51.322;22.816;2024-03-02T08:04:47;6.70;99.90
22923;DHT22;11627;51.322;22.816;2024-03-02T08:07:15;6.70;99.90
22923;DHT22;11627;51.322;22.816;2024-03-02T08:09:41;6.60;99.90
22923;DHT22;11627;51.322;22.816;2024-03-02T08:12:07;6.60;99.90
22923;DHT22;11627;51.322;22.816;2024-03-02T08:14:33;6.90;99.90
22923;DHT22;11627;51.322;22.816;2024-03-02T08:16:59;6.80;99.90
22923;DHT22;11627;51.322;22.816;2024-03-02T08:19:27;6.90;99.90
22923;DHT22;11627;51.322;22.816;2024-03-02T08:21:54;6.60;99.90
22923;DHT22;11627;51.322;22.816;2024-03-02T08:24:21;6.60;99.90
22923;DHT22;11627;51.322;22.816;2024-03-02T08:26:47;6.90;99.90
22923;DHT22;11627;51.322;22.816;2024-03-02T08:29:13;7.00;99.90
22923;DHT22;11627;51.322;22.816;2024-03-02T08:31:40;7.00;99.90
22923;DHT22;11627;51.322;22.816;2024-03-02T08:34:06;7.00;99.90
22923;DHT22;11627;51.322;22.816;2024-03-02T08:36:32;7.00;99.90
22923;DHT22;11627;51.322;22.816;2024-03-02T08:38:58;7.00;99.90
22923;DHT22;11627;51.322;22.816;2024-03-02T08:41:24;7.00;99.90
22923;DHT22;11627;51.322;22.816;2024-03-02T08:43:50;7.10;99.90
22923;DHT22;11627;51.322;22.816;2024-03-02T08:46:16;7.10;99.90
22923;DHT22;11627;51.322;22.816;2024-03-02T08:48:42;7.10;99.90
22923;DHT22;11627;51.322;22.816;2024-03-02T08:51:07;7.10;99.90
22923;DHT22;11627;51.322;22.816;2024-03-02T08:53:38;7.10;99.90
22923;DHT22;11627;51.322;22.816;2024-03-02T08:56:04;7.10;99.90
22923;DHT22;11627;51.322;22.816;2024-03-02T08:58:31;7.20;99.90
22923;DHT22;11627;51.322;22.816;2024-03-02T09:00:57;7.20;99.90
22923;DHT22;11627;51.322;22.816;2024-03-02T09:03:23;7.60;99.90
22923;DHT22;11627;51.322;22.816;2024-03-02T09:05:50;7.40;99.90
22923;DHT22;11627;51.322;22.816;2024-03-02T09:08:19;7.40;99.90
22923;DHT22;11627;51.322;22.816;2024-03-02T09:10:45;7.60;99.90
22923;DHT22;11627;51.322;22.816;2024-03-02T09:13:12;7.70;99.90
22923;DHT22;11627;51.322;22.816;2024-03-02T09:15:38;7.80;99.90
22923;DHT22;11627;51.322;22.816;2024-03-02T09:18:05;7.80;99.90
22923;DHT22;11627;51.322;22.816;2024-03-02T09:20:33;7.80;99.90
22923;DHT22;11627;51.322;22.816;2024-03-02T09:23:00;7.80;99.90
22923;DHT22;11627;51.322;22.816;2024-03-02T09:25:27;7.90;99.90
22923;DHT22;11627;51.322;22.816;2024-03-02T09:27:54;7.80;99.90
22923;DHT22;11627;51.322;22.816;2024-03-02T09:30:20;7.80;99.90
22923;DHT22;11627;51.322;22.816;2024-03-02T09:32:46;8.00;99.90
22923;DHT22;11627;51.322;22.816;2024-03-02T09:35:13;8.00;99.90
22923;DHT22;11627;51.322;22.816;2024-03-02T09:37:39;8.00;99.90
22923;DHT22;11627;51.322;22.816;2024-03-02T09:40:05;8.00;99.90
22923;DHT22;11627;51.322;22.816;2024-03-02T09:42:32;8.00;99.90
22923;DHT22;11627;51.322;22.816;2024-03-02T09:44:58;8.00;99.90
22923;DHT22;11627;51.322;22.816;2024-03-02T09:47:25;8.10;99.90
22923;DHT22;11627;51.322;22.816;2024-03-02T09:49:51;8.10;97.50
22923;DHT22;11627;51.322;22.816;2024-03-02T09:52:18;8.20;98.40
22923;DHT22;11627;51.322;22.816;2024-03-02T09:54:47;8.30;95.20
22923;DHT22;11627;51.322;22.816;2024-03-02T09:57:16;8.30;91.40
22923;DHT22;11627;51.322;22.816;2024-03-02T09:59:42;8.20;90.80
22923;DHT22;11627;51.322;22.816;2024-03-02T10:02:11;8.20;95.40
22923;DHT22;11627;51.322;22.816;2024-03-02T10:04:37;8.20;99.90
22923;DHT22;11627;51.322;22.816;2024-03-02T10:09:41;8.20;93.20
22923;DHT22;11627;51.322;22.816;2024-03-02T10:12:10;8.30;92.50
22923;DHT22;11627;51.322;22.816;2024-03-02T10:14:37;8.30;93.80
22923;DHT22;11627;51.322;22.816;2024-03-02T10:17:06;8.40;93.40
22923;DHT22;11627;51.322;22.816;2024-03-02T10:19:36;8.60;91.40
22923;DHT22;11627;51.322;22.816;2024-03-02T10:22:05;8.70;87.10
22923;DHT22;11627;51.322;22.816;2024-03-02T10:24:50;8.80;83.70
22923;DHT22;11627;51.322;22.816;2024-03-02T10:27:34;8.70;82.30
22923;DHT22;11627;51.322;22.816;2024-03-02T10:30:02;8.70;86.90
22923;DHT22;11627;51.322;22.816;2024-03-02T10:32:31;8.70;79.60
22923;DHT22;11627;51.322;22.816;2024-03-02T10:35:18;9.00;92.30
22923;DHT22;11627;51.322;22.816;2024-03-02T10:37:45;8.90;81.60
22923;DHT22;11627;51.322;22.816;2024-03-02T10:40:11;9.10;72.60
22923;DHT22;11627;51.322;22.816;2024-03-02T10:42:38;9.10;72.90
22923;DHT22;11627;51.322;22.816;2024-03-02T10:45:11;9.10;69.90
22923;DHT22;11627;51.322;22.816;2024-03-02T10:47:40;9.10;67.80
22923;DHT22;11627;51.322;22.816;2024-03-02T10:50:07;9.20;75.20
22923;DHT22;11627;51.322;22.816;2024-03-02T10:52:38;9.20;61.30
22923;DHT22;11627;51.322;22.816;2024-03-02T10:55:09;9.30;62.60
22923;DHT22;11627;51.322;22.816;2024-03-02T10:57:51;9.40;57.60
22923;DHT22;11627;51.322;22.816;2024-03-02T11:00:19;9.40;48.10
22923;DHT22;11627;51.322;22.816;2024-03-02T11:02:52;9.40;45.60
22923;DHT22;11627;51.322;22.816;2024-03-02T11:05:28;9.60;48.60
22923;DHT22;11627;51.322;22.816;2024-03-02T11:08:00;9.50;48.20
22923;DHT22;11627;51.322;22.816;2024-03-02T11:10:35;9.60;44.40
22923;DHT22;11627;51.322;22.816;2024-03-02T11:13:09;9.60;46.80
22923;DHT22;11627;51.322;22.816;2024-03-02T11:15:37;9.70;41.50
22923;DHT22;11627;51.322;22.816;2024-03-02T11:18:06;9.60;42.00
22923;DHT22;11627;51.322;22.816;2024-03-02T11:20:38;9.70;42.00
22923;DHT22;11627;51.322;22.816;2024-03-02T11:23:09;9.70;40.90
22923;DHT22;11627;51.322;22.816;2024-03-02T11:25:35;9.70;33.10
22923;DHT22;11627;51.322;22.816;2024-03-02T11:28:07;9.70;30.60
22923;DHT22;11627;51.322;22.816;2024-03-02T11:33:03;9.60;30.00
22923;DHT22;11627;51.322;22.816;2024-03-02T11:35:42;9.70;28.40
22923;DHT22;11627;51.322;22.816;2024-03-02T11:38:11;9.80;25.70
22923;DHT22;11627;51.322;22.816;2024-03-02T11:40:39;9.90;26.70
22923;DHT22;11627;51.322;22.816;2024-03-02T11:43:07;9.90;25.50
22923;DHT22;11627;51.322;22.816;2024-03-02T11:45:36;9.80;26.00
22923;DHT22;11627;51.322;22.816;2024-03-02T11:48:09;9.90;24.80
22923;DHT22;11627;51.322;22.816;2024-03-02T11:50:49;9.80;27.10
22923;DHT22;11627;51.322;22.816;2024-03-02T11:53:17;9.70;23.20
22923;DHT22;11627;51.322;22.816;2024-03-02T11:55:46;9.70;23.10
22923;DHT22;11627;51.322;22.816;2024-03-02T11:58:13;9.80;19.30
22923;DHT22;11627;51.322;22.816;2024-03-02T12:00:40;9.90;19.30
22923;DHT22;11627;51.322;22.816;2024-03-02T12:03:13;9.80;16.50
22923;DHT22;11627;51.322;22.816;2024-03-02T12:05:40;9.90;15.30
22923;DHT22;11627;51.322;22.816;2024-03-02T12:08:10;9.90;13.70
22923;DHT22;11627;51.322;22.816;2024-03-02T12:10:37;9.90;15.40
22923;DHT22;11627;51.322;22.816;2024-03-02T12:13:05;10.00;14.20
22923;DHT22;11627;51.322;22.816;2024-03-02T12:15:36;9.90;17.00
22923;DHT22;11627;51.322;22.816;2024-03-02T12:18:02;9.70;16.90
22923;DHT22;11627;51.322;22.816;2024-03-02T12:20:30;9.80;20.50
22923;DHT22;11627;51.322;22.816;2024-03-02T12:22:59;9.80;27.10
22923;DHT22;11627;51.322;22.816;2024-03-02T12:25:28;10.00;20.20
22923;DHT22;11627;51.322;22.816;2024-03-02T12:27:59;10.00;15.30
22923;DHT22;11627;51.322;22.816;2024-03-02T12:30:30;10.00;13.30
22923;DHT22;11627;51.322;22.816;2024-03-02T12:32:57;10.00;10.70
22923;DHT22;11627;51.322;22.816;2024-03-02T12:35:24;9.90;10.20
22923;DHT22;11627;51.322;22.816;2024-03-02T12:37:52;10.00;11.30
22923;DHT22;11627;51.322;22.816;2024-03-02T12:40:20;10.00;17.30
22923;DHT22;11627;51.322;22.816;2024-03-02T12:42:48;9.90;13.30
22923;DHT22;11627;51.322;22.816;2024-03-02T12:45:15;9.80;15.20
22923;DHT22;11627;51.322;22.816;2024-03-02T12:47:42;9.90;17.60
22923;DHT22;11627;51.322;22.816;2024-03-02T12:50:09;9.90;15.00
22923;DHT22;11627;51.322;22.816;2024-03-02T12:52:35;9.90;14.40
22923;DHT22;11627;51.322;22.816;2024-03-02T12:55:06;10.00;19.70
22923;DHT22;11627;51.322;22.816;2024-03-02T12:57:33;10.00;16.00
22923;DHT22;11627;51.322;22.816;2024-03-02T13:00:07;10.00;16.90
22923;DHT22;11627;51.322;22.816;2024-03-02T13:02:42;10.00;18.10
22923;DHT22;11627;51.322;22.816;2024-03-02T13:05:08;10.00;14.30
22923;DHT22;11627;51.322;22.816;2024-03-02T13:07:38;10.00;12.50
22923;DHT22;11627;51.322;22.816;2024-03-02T13:10:05;9.90;14.10
22923;DHT22;11627;51.322;22.816;2024-03-02T13:12:34;9.80;13.10
22923;DHT22;11627;51.322;22.816;2024-03-02T13:15:03;9.80;13.00
22923;DHT22;11627;51.322;22.816;2024-03-02T13:17:31;9.90;7.00
22923;DHT22;11627;51.322;22.816;2024-03-02T13:19:59;9.90;9.20
22923;DHT22;11627;51.322;22.816;2024-03-02T13:22:26;9.90;13.00
22923;DHT22;11627;51.322;22.816;2024-03-02T13:24:53;9.80;12.90
22923;DHT22;11627;51.322;22.816;2024-03-02T13:27:20;9.80;13.60
22923;DHT22;11627;51.322;22.816;2024-03-02T13:29:50;9.80;13.10
22923;DHT22;11627;51.322;22.816;2024-03-02T13:32:16;9.70;12.80
22923;DHT22;11627;51.322;22.816;2024-03-02T13:34:46;9.70;11.90
22923;DHT22;11627;51.322;22.816;2024-03-02T13:37:12;9.60;11.70
22923;DHT22;11627;51.322;22.816;2024-03-02T13:39:39;9.70;15.00
22923;DHT22;11627;51.322;22.816;2024-03-02T13:42:09;9.70;10.40
22923;DHT22;11627;51.322;22.816;2024-03-02T13:44:36;9.70;9.00
22923;DHT22;11627;51.322;22.816;2024-03-02T13:47:05;9.70;10.70
22923;DHT22;11627;51.322;22.816;2024-03-02T13:49:31;9.60;16.60
22923;DHT22;11627;51.322;22.816;2024-03-02T13:52:05;9.60;24.50
22923;DHT22;11627;51.322;22.816;2024-03-02T13:54:46;9.50;30.00
22923;DHT22;11627;51.322;22.816;2024-03-02T13:57:13;9.60;15.30
22923;DHT22;11627;51.322;22.816;2024-03-02T13:59:42;9.60;11.00
22923;DHT22;11627;51.322;22.816;2024-03-02T14:02:09;9.60;15.00
22923;DHT22;11627;51.322;22.816;2024-03-02T14:04:37;9.60;15.60
22923;DHT22;11627;51.322;22.816;2024-03-02T14:07:04;9.60;13.50
22923;DHT22;11627;51.322;22.816;2024-03-02T14:09:34;9.60;14.70
22923;DHT22;11627;51.322;22.816;2024-03-02T14:12:04;9.60;18.80
22923;DHT22;11627;51.322;22.816;2024-03-02T14:14:30;9.60;16.90
22923;DHT22;11627;51.322;22.816;2024-03-02T14:16:59;9.60;16.90
22923;DHT22;11627;51.322;22.816;2024-03-02T14:19:32;9.60;12.10
22923;DHT22;11627;51.322;22.816;2024-03-02T14:21:58;9.60;10.10
22923;DHT22;11627;51.322;22.816;2024-03-02T14:24:25;9.60;13.60
22923;DHT22;11627;51.322;22.816;2024-03-02T14:26:52;9.70;15.30
22923;DHT22;11627;51.322;22.816;2024-03-02T14:29:18;9.60;15.90
22923;DHT22;11627;51.322;22.816;2024-03-02T14:31:45;9.50;17.70
22923;DHT22;11627;51.322;22.816;2024-03-02T14:34:15;9.50;20.60
22923;DHT22;11627;51.322;22.816;2024-03-02T14:36:41;9.60;19.50
22923;DHT22;11627;51.322;22.816;2024-03-02T14:39:09;9.60;18.40
22923;DHT22;11627;51.322;22.816;2024-03-02T14:41:37;9.50;17.80
22923;DHT22;11627;51.322;22.816;2024-03-02T14:44:03;9.50;17.90
22923;DHT22;11627;51.322;22.816;2024-03-02T14:46:31;9.50;23.00
22923;DHT22;11627;51.322;22.816;2024-03-02T14:48:59;9.50;25.30
22923;DHT22;11627;51.322;22.816;2024-03-02T14:51:26;9.50;22.50
22923;DHT22;11627;51.322;22.816;2024-03-02T14:53:52;9.50;18.20
22923;DHT22;11627;51.322;22.816;2024-03-02T14:56:20;9.40;23.30
22923;DHT22;11627;51.322;22.816;2024-03-02T14:58:48;9.40;25.90
22923;DHT22;11627;51.322;22.816;2024-03-02T15:01:15;9.50;26.70
22923;DHT22;11627;51.322;22.816;2024-03-02T15:03:42;9.40;25.40
22923;DHT22;11627;51.322;22.816;2024-03-02T15:06:08;9.40;25.10
22923;DHT22;11627;51.322;22.816;2024-03-02T15:08:36;9.30;25.60
22923;DHT22;11627;51.322;22.816;2024-03-02T15:11:02;9.30;28.50
22923;DHT22;11627;51.322;22.816;2024-03-02T15:13:30;9.30;36.70
22923;DHT22;11627;51.322;22.816;2024-03-02T15:16:01;9.30;30.00
22923;DHT22;11627;51.322;22.816;2024-03-02T15:18:28;9.20;37.80
22923;DHT22;11627;51.322;22.816;2024-03-02T15:20:54;9.10;49.20
22923;DHT22;11627;51.322;22.816;2024-03-02T15:23:21;9.10;48.20
22923;DHT22;11627;51.322;22.816;2024-03-02T15:25:47;9.10;50.00
22923;DHT22;11627;51.322;22.816;2024-03-02T15:28:13;9.10;48.20
22923;DHT22;11627;51.322;22.816;2024-03-02T15:30:39;9.00;49.10
22923;DHT22;11627;51.322;22.816;2024-03-02T15:33:05;9.00;51.00
22923;DHT22;11627;51.322;22.816;2024-03-02T15:35:31;9.00;50.10
22923;DHT22;11627;51.322;22.816;2024-03-02T15:37:58;8.90;52.00
22923;DHT22;11627;51.322;22.816;2024-03-02T15:40:24;8.70;54.10
22923;DHT22;11627;51.322;22.816;2024-03-02T15:42:51;8.70;62.60
22923;DHT22;11627;51.322;22.816;2024-03-02T15:45:17;8.60;69.00
22923;DHT22;11627;51.322;22.816;2024-03-02T15:47:43;8.50;78.40
22923;DHT22;11627;51.322;22.816;2024-03-02T15:50:09;8.50;96.90
22923;DHT22;11627;51.322;22.816;2024-03-02T15:52:37;8.40;92.30
22923;DHT22;11627;51.322;22.816;2024-03-02T15:55:03;8.40;91.70
22923;DHT22;11627;51.322;22.816;2024-03-02T15:57:31;8.40;93.10
22923;DHT22;11627;51.322;22.816;2024-03-02T15:59:59;8.40;92.50
22923;DHT22;11627;51.322;22.816;2024-03-02T16:02:25;8.50;88.80
22923;DHT22;11627;51.322;22.816;2024-03-02T16:04:51;8.40;91.60
22923;DHT22;11627;51.322;22.816;2024-03-02T16:07:17;8.40;94.50